»·PEaware :: TOTAL50 KLSV-KABQ

TOTAL50 :: KLSV-KABQ

FLIGHT INFORMATION

Flight Status: Arrived
Operator: Unknown
More flights by this operator :: More flights under this callsign
Pilot: Chase K. (18495)
Aircraft: BOEING 767-300
(B763)
More flights by this aircraft type
Origin: KLSV Nellis AFB
United States
Destination: KABQ Albuquerque Intl Sunport
United States
More flights between these airports :: More routes between these airports
Route: +DREAM6 JUNNO MEADS PGS J72 GUP LOWBO3
File this flight plan on PilotEdge
Remarks: KABQ PRACTICE APPROACHES / / DO+30 / /
Altitude:
(Current/Filed)
330ft
Speed:
(Current/Filed)
450kts
Departed: 28-Mar-19 08:29 AM
Arrived: 28-Mar-19 10:16 AM
Distance/Time
Traveled:
417nm/1:46
Distance/Time
To Go:
Arrived

Flight Plot

Page will automatically refresh every two minutes.

Flight plan parsing failed; only flown route is shown


Map Options




Map Legend


Flown Route
Filed Route
Departure Airport
Arrival Airport
Navaid (VOR, NDB)
Fix

Horizontal Profiles

Position Reports

Time Latitude Longitude Heading Altitude Ground
Speed
28-Mar-19 07:36 36.238863 -115.037773 76 1866ft 0kts
28-Mar-19 07:37 36.238863 -115.037773 76 1866ft 0kts
28-Mar-19 07:38 36.238863 -115.037773 76 1866ft 0kts
28-Mar-19 07:39 36.238863 -115.037773 76 1866ft 0kts
28-Mar-19 07:40 36.238863 -115.037773 76 1866ft 0kts
28-Mar-19 07:41 36.238863 -115.037773 76 1866ft 0kts
28-Mar-19 07:42 36.238863 -115.037773 76 1866ft 0kts
28-Mar-19 07:43 36.238863 -115.037773 76 1866ft 0kts
28-Mar-19 07:44 36.238863 -115.037773 76 1866ft 0kts
28-Mar-19 07:45 36.238863 -115.037773 76 1866ft 0kts
28-Mar-19 07:45 36.238863 -115.037773 76 1866ft 0kts
28-Mar-19 07:47 36.238863 -115.037773 76 1866ft 0kts
28-Mar-19 07:48 36.238863 -115.037773 76 1866ft 0kts
28-Mar-19 07:49 36.238863 -115.037773 76 1866ft 0kts
28-Mar-19 07:50 36.238863 -115.037773 76 1866ft 0kts
28-Mar-19 07:50 36.238863 -115.037773 76 1866ft 0kts
28-Mar-19 07:52 36.238863 -115.037773 76 1866ft 0kts
28-Mar-19 07:52 36.238863 -115.037773 76 1866ft 0kts
28-Mar-19 07:53 36.238863 -115.037773 76 1866ft 0kts
28-Mar-19 07:54 36.238863 -115.037773 76 1866ft 0kts
28-Mar-19 07:55 36.238863 -115.037773 76 1866ft 0kts
28-Mar-19 07:57 36.238863 -115.037773 76 1866ft 0kts
28-Mar-19 07:57 36.238863 -115.037773 76 1866ft 0kts
28-Mar-19 07:58 36.238863 -115.037773 76 1866ft 0kts
28-Mar-19 07:59 36.238863 -115.037773 76 1866ft 0kts
28-Mar-19 08:00 36.238863 -115.037773 76 1866ft 0kts
28-Mar-19 08:01 36.238863 -115.037773 76 1866ft 0kts
28-Mar-19 08:02 36.238863 -115.037773 76 1866ft 0kts
28-Mar-19 08:03 36.238863 -115.037773 76 1866ft 0kts
28-Mar-19 08:04 36.238863 -115.037773 76 1866ft 0kts
28-Mar-19 08:05 36.238863 -115.037773 76 1866ft 0kts
28-Mar-19 08:06 36.238863 -115.037773 76 1866ft 0kts
28-Mar-19 08:07 36.238863 -115.037773 76 1866ft 0kts
28-Mar-19 08:08 36.238863 -115.037773 76 1866ft 0kts
28-Mar-19 08:09 36.238863 -115.037773 76 1866ft 0kts
28-Mar-19 08:10 36.238863 -115.037772 76 1866ft 0kts
28-Mar-19 08:11 36.238863 -115.037772 76 1866ft 0kts
28-Mar-19 08:12 36.238863 -115.037772 76 1866ft 0kts
28-Mar-19 08:13 36.238863 -115.037772 76 1866ft 0kts
28-Mar-19 08:14 36.238863 -115.037772 76 1866ft 0kts
28-Mar-19 08:15 36.238863 -115.037773 76 1866ft 0kts
28-Mar-19 08:16 36.238863 -115.037773 76 1866ft 0kts
28-Mar-19 08:17 36.238863 -115.037772 76 1866ft 0kts
28-Mar-19 08:18 36.238863 -115.037772 76 1866ft 0kts
28-Mar-19 08:19 36.238863 -115.037772 76 1866ft 0kts
28-Mar-19 08:20 36.239110 -115.036518 76 1865ft 7kts
28-Mar-19 08:21 36.240280 -115.034419 42 1866ft 6kts
28-Mar-19 08:22 36.241990 -115.032530 42 1871ft 12kts
28-Mar-19 08:23 36.246033 -115.031346 2 1882ft 16kts
28-Mar-19 08:24 36.248206 -115.031742 207 1888ft 4kts
28-Mar-19 08:25 36.247141 -115.028657 91 1880ft 18kts
28-Mar-19 08:26 36.247094 -115.027157 92 1880ft 0kts
28-Mar-19 08:27 36.247076 -115.026605 92 1879ft 8kts
28-Mar-19 08:28 36.243782 -115.028290 220 1873ft 65kts
28-Mar-19 08:29 36.214885 -115.060822 222 2871ft 179kts
28-Mar-19 08:30 36.230722 -115.116055 326 4900ft 235kts
28-Mar-19 08:31 36.291519 -115.161574 329 7377ft 276kts
28-Mar-19 08:32 36.372378 -115.163000 1 10068ft 309kts
28-Mar-19 08:33 36.450846 -115.110970 60 12143ft 361kts
28-Mar-19 08:34 36.447928 -114.988689 129 13547ft 364kts
28-Mar-19 08:35 36.387674 -114.887557 129 16070ft 381kts
28-Mar-19 08:36 36.325879 -114.775555 132 18095ft 404kts
28-Mar-19 08:37 36.259949 -114.659738 132 20987ft 420kts
28-Mar-19 08:38 36.191006 -114.539252 133 23594ft 439kts
28-Mar-19 08:39 36.119353 -114.412792 132 26337ft 459kts
28-Mar-19 08:40 36.044802 -114.280492 132 29068ft 475kts
28-Mar-19 08:41 35.969613 -114.147551 132 32007ft 473kts
28-Mar-19 08:42 35.894147 -114.014699 132 33137ft 478kts
28-Mar-19 08:43 35.815303 -113.876474 131 33157ft 497kts
28-Mar-19 08:44 35.735998 -113.737920 131 33159ft 496kts
28-Mar-19 08:45 35.656925 -113.598955 126 33156ft 499kts
28-Mar-19 08:46 35.622495 -113.431775 92 33166ft 519kts
28-Mar-19 08:47 35.620703 -113.254855 93 33153ft 517kts
28-Mar-19 08:48 35.618020 -113.078423 93 33154ft 515kts
28-Mar-19 08:49 35.615044 -112.903122 93 33187ft 512kts
28-Mar-19 08:50 35.611815 -112.728093 93 33222ft 510kts
28-Mar-19 08:51 35.608358 -112.554344 93 33225ft 509kts
28-Mar-19 08:52 35.604634 -112.380752 93 33225ft 507kts
28-Mar-19 08:53 35.599628 -112.207208 94 33217ft 506kts
28-Mar-19 08:54 35.594381 -112.034222 94 33220ft 506kts
28-Mar-19 08:55 35.589105 -111.861926 93 33228ft 506kts
28-Mar-19 08:56 35.585882 -111.689254 93 33231ft 505kts
28-Mar-19 08:57 35.582357 -111.516441 93 33233ft 505kts
28-Mar-19 08:58 35.577302 -111.343952 94 33234ft 507kts
28-Mar-19 08:59 35.571925 -111.172803 94 33227ft 506kts
28-Mar-19 09:00 35.566190 -110.998355 94 33210ft 506kts
28-Mar-19 09:01 35.560272 -110.825944 94 33184ft 506kts
28-Mar-19 09:02 35.554098 -110.653267 94 33186ft 506kts
28-Mar-19 09:03 35.547684 -110.480562 94 33196ft 506kts
28-Mar-19 09:04 35.541015 -110.307839 95 33224ft 506kts
28-Mar-19 09:05 35.534105 -110.135305 95 33182ft 505kts
28-Mar-19 09:06 35.526926 -109.962458 95 33222ft 507kts
28-Mar-19 09:07 35.519509 -109.789600 95 33239ft 507kts
28-Mar-19 09:08 35.511846 -109.616889 95 33241ft 506kts
28-Mar-19 09:09 35.503921 -109.443723 95 33242ft 507kts
28-Mar-19 09:10 35.495736 -109.270401 96 33235ft 508kts
28-Mar-19 09:11 35.487311 -109.097296 96 33239ft 508kts
28-Mar-19 09:12 35.478630 -108.924069 96 33247ft 509kts
28-Mar-19 09:13 35.478632 -108.748998 90 31745ft 512kts
28-Mar-19 09:14 35.482729 -108.575004 90 29635ft 491kts
28-Mar-19 09:15 35.486133 -108.411574 90 27502ft 469kts
28-Mar-19 09:16 35.480683 -108.258253 96 25453ft 449kts
28-Mar-19 09:17 35.470880 -108.107038 95 23794ft 439kts
28-Mar-19 09:18 35.461524 -107.958298 96 22909ft 442kts
28-Mar-19 09:19 35.451124 -107.811278 95 20068ft 431kts
28-Mar-19 09:20 35.442328 -107.669898 94 18295ft 408kts
28-Mar-19 09:21 35.433786 -107.534242 95 16566ft 393kts
28-Mar-19 09:22 35.425333 -107.402410 95 16042ft 388kts
28-Mar-19 09:23 35.382594 -107.284115 125 16045ft 381kts
28-Mar-19 09:24 35.325866 -107.173683 125 16053ft 382kts
28-Mar-19 09:25 35.279394 -107.065885 110 15115ft 338kts
28-Mar-19 09:26 35.239600 -106.965392 145 14113ft 321kts
28-Mar-19 09:27 35.159666 -106.929619 147 13149ft 315kts
28-Mar-19 09:28 35.088662 -106.869114 138 12088ft 301kts
28-Mar-19 09:29 35.040297 -106.798281 93 10498ft 259kts
28-Mar-19 09:30 35.044951 -106.716566 90 8073ft 218kts
28-Mar-19 09:31 35.044608 -106.651166 91 5908ft 163kts
28-Mar-19 09:32 35.044223 -106.606056 89 5324ft 126kts
28-Mar-19 09:33 35.045001 -106.554824 95 6249ft 178kts
28-Mar-19 09:34 35.000614 -106.544148 230 6493ft 223kts
28-Mar-19 09:35 34.992994 -106.617526 267 6502ft 204kts
28-Mar-19 09:36 34.993813 -106.685214 295 6455ft 193kts
28-Mar-19 09:37 35.028035 -106.679832 47 6050ft 144kts
28-Mar-19 09:38 35.044230 -106.638830 89 5671ft 132kts
28-Mar-19 09:39 35.044118 -106.594219 92 5452ft 139kts
28-Mar-19 09:40 35.038794 -106.540731 133 6504ft 185kts
28-Mar-19 09:41 34.996847 -106.566263 265 6498ft 225kts
28-Mar-19 09:42 34.994909 -106.642777 267 6480ft 225kts
28-Mar-19 09:43 35.001710 -106.715681 305 6505ft 195kts
28-Mar-19 09:44 35.038634 -106.717985 60 6482ft 147kts
28-Mar-19 09:45 35.044684 -106.669667 91 6166ft 144kts
28-Mar-19 09:46 35.044385 -106.622203 92 5411ft 133kts
28-Mar-19 09:47 35.043918 -106.576089 93 5792ft 143kts
28-Mar-19 09:48 35.024055 -106.541445 194 6554ft 160kts
28-Mar-19 09:49 35.016288 -106.602201 275 6328ft 226kts
28-Mar-19 09:50 35.026343 -106.680788 284 6256ft 217kts
28-Mar-19 09:51 35.045889 -106.675968 102 6116ft 147kts
28-Mar-19 09:52 35.044407 -106.627703 91 5493ft 137kts
28-Mar-19 09:53 35.044152 -106.582412 90 5718ft 142kts
28-Mar-19 09:54 35.026280 -106.540194 181 6482ft 216kts
28-Mar-19 09:55 35.000526 -106.598867 267 6480ft 225kts
28-Mar-19 09:56 34.998829 -106.675228 272 6469ft 220kts
28-Mar-19 09:57 35.032044 -106.697603 37 6370ft 147kts
28-Mar-19 09:58 35.044462 -106.652699 92 6022ft 141kts
28-Mar-19 09:59 35.044259 -106.606703 90 5324ft 122kts
28-Mar-19 10:00 35.042641 -106.556034 92 6178ft 173kts
28-Mar-19 10:01 35.002425 -106.535458 223 6498ft 222kts
28-Mar-19 10:02 34.992870 -106.609212 270 6475ft 225kts
28-Mar-19 10:03 34.991695 -106.685214 277 6475ft 211kts
28-Mar-19 10:04 35.023713 -106.712964 26 6530ft 149kts
28-Mar-19 10:05 35.046141 -106.672017 95 6194ft 147kts
28-Mar-19 10:06 35.044397 -106.623629 91 5450ft 139kts
28-Mar-19 10:07 35.043917 -106.561432 96 6363ft 216kts
28-Mar-19 10:08 34.999029 -106.543100 229 6492ft 222kts
28-Mar-19 10:09 34.991320 -106.617830 267 6481ft 225kts
28-Mar-19 10:10 34.991284 -106.691375 282 6492ft 187kts
28-Mar-19 10:11 35.020582 -106.723364 358 6477ft 146kts
28-Mar-19 10:13 35.044817 -106.690558 91 6492ft 149kts
28-Mar-19 10:14 35.044523 -106.640622 92 5715ft 142kts
28-Mar-19 10:15 35.044177 -106.600284 89 5327ft 61kts
28-Mar-19 10:16 35.045652 -106.591363 315 5333ft 8kts
28-Mar-19 10:17 35.045840 -106.595500 270 5330ft 17kts
28-Mar-19 10:18 35.047462 -106.599334 359 5329ft 9kts
28-Mar-19 10:19 35.048254 -106.601851 263 5327ft 5kts
28-Mar-19 10:20 35.047979 -106.602101 180 5327ft 0kts

Navigation Log

Ident Type
Flight plan parsing failed, navigation log unavailable